createdAt,value
2018-04-06T00:02:26.826Z,2.60
2018-04-06T00:04:55.086Z,2.60
2018-04-06T00:07:24.116Z,2.50
2018-04-06T00:09:52.385Z,2.40
2018-04-06T00:12:20.638Z,2.40
2018-04-06T00:14:48.953Z,2.40
2018-04-06T00:17:17.202Z,2.60
2018-04-06T00:19:45.442Z,2.50
2018-04-06T00:22:14.478Z,2.40
2018-04-06T00:24:42.762Z,2.40
2018-04-06T00:27:11.125Z,2.30
2018-04-06T00:29:39.366Z,2.20
2018-04-06T00:32:08.370Z,2.10
2018-04-06T00:34:36.673Z,2.10
2018-04-06T00:37:04.955Z,2.10
2018-04-06T00:39:33.197Z,2.00
2018-04-06T00:42:01.503Z,2.00
2018-04-06T00:44:29.777Z,1.90
2018-04-06T00:46:58.053Z,1.90
2018-04-06T00:49:26.339Z,1.90
2018-04-06T00:51:54.615Z,2.00
2018-04-06T00:54:22.854Z,1.90
2018-04-06T00:56:51.161Z,1.90
2018-04-06T00:59:19.407Z,1.90
2018-04-06T01:01:47.702Z,1.90
2018-04-06T01:04:15.954Z,1.90
2018-04-06T01:06:44.953Z,1.90
2018-04-06T01:09:13.250Z,1.90
2018-04-06T01:11:41.503Z,1.90
2018-04-06T01:14:09.747Z,1.90
2018-04-06T01:16:37.986Z,1.90
2018-04-06T01:19:06.242Z,1.90
2018-04-06T01:21:34.529Z,2.00
2018-04-06T01:24:02.770Z,2.00
2018-04-06T01:26:31.080Z,2.00
2018-04-06T01:28:59.344Z,1.90
2018-04-06T01:31:27.591Z,1.90
2018-04-06T01:33:56.618Z,1.70
2018-04-06T01:36:24.870Z,1.70
2018-04-06T01:38:53.101Z,1.80
2018-04-06T01:41:21.356Z,1.80
2018-04-06T01:43:49.616Z,1.80
2018-04-06T01:46:17.852Z,1.70
2018-04-06T01:48:46.870Z,1.60
2018-04-06T01:51:15.153Z,1.50
2018-04-06T01:53:43.401Z,1.50
2018-04-06T01:56:12.406Z,1.40
2018-04-06T01:58:40.701Z,1.40
2018-04-06T02:01:09.019Z,1.40
2018-04-06T02:03:37.249Z,1.40
2018-04-06T02:06:05.525Z,1.40
2018-04-06T02:08:33.814Z,1.50
2018-04-06T02:11:02.045Z,1.50
2018-04-06T02:13:31.074Z,1.60
2018-04-06T02:15:59.321Z,1.60
2018-04-06T02:18:27.559Z,1.60
2018-04-06T02:20:56.354Z,1.60
2018-04-06T02:23:24.562Z,1.70
2018-04-06T02:25:52.859Z,1.70
2018-04-06T02:28:21.139Z,1.70
2018-04-06T02:30:49.413Z,1.70
2018-04-06T02:33:17.663Z,1.70
2018-04-06T02:35:45.929Z,1.70
2018-04-06T02:38:14.948Z,1.70
2018-04-06T02:40:43.185Z,1.60
2018-04-06T02:43:12.193Z,1.70
2018-04-06T02:45:40.455Z,1.60
2018-04-06T02:48:09.447Z,1.60
2018-04-06T02:50:38.478Z,1.60
2018-04-06T02:53:06.731Z,1.50
2018-04-06T02:55:34.969Z,1.50
2018-04-06T02:58:03.306Z,1.50
2018-04-06T03:00:31.546Z,1.50
2018-04-06T03:03:00.554Z,1.40
2018-04-06T03:05:28.796Z,1.30
2018-04-06T03:07:57.807Z,1.30
2018-04-06T03:10:26.833Z,1.30
2018-04-06T03:12:55.117Z,1.30
2018-04-06T03:15:23.377Z,1.30
2018-04-06T03:17:51.618Z,1.30
2018-04-06T03:20:20.629Z,1.20
2018-04-06T03:22:48.935Z,1.20
2018-04-06T03:25:17.189Z,1.20
2018-04-06T03:27:45.522Z,1.10
2018-04-06T03:30:13.754Z,1.10
2018-04-06T03:32:42.071Z,1.10
2018-04-06T03:35:10.306Z,1.10
2018-04-06T03:37:38.548Z,1.00
2018-04-06T03:40:07.572Z,1.00
2018-04-06T03:42:35.845Z,1.00
2018-04-06T03:45:04.130Z,1.00
2018-04-06T03:47:32.373Z,1.00
2018-04-06T03:50:00.612Z,1.00
2018-04-06T03:52:28.888Z,0.90
2018-04-06T03:54:57.127Z,0.90
2018-04-06T03:57:25.393Z,0.80
2018-04-06T03:59:53.676Z,0.80
2018-04-06T04:02:21.924Z,0.80
2018-04-06T04:04:50.929Z,0.80
2018-04-06T04:07:19.171Z,0.80
2018-04-06T04:09:48.217Z,0.90
2018-04-06T04:12:16.526Z,0.80
2018-04-06T04:14:44.749Z,0.80
2018-04-06T04:17:13.078Z,0.80
2018-04-06T04:19:41.430Z,0.80
2018-04-06T04:22:09.661Z,0.80
2018-04-06T04:24:37.965Z,0.80
2018-04-06T04:27:06.283Z,0.80
2018-04-06T04:29:34.493Z,0.70
2018-04-06T04:32:02.786Z,0.80
2018-04-06T04:34:31.024Z,0.80
2018-04-06T04:37:00.062Z,0.70
2018-04-06T04:39:28.341Z,0.70
2018-04-06T04:41:56.601Z,0.70
2018-04-06T04:44:25.851Z,0.70
2018-04-06T04:46:54.071Z,0.80
2018-04-06T04:49:22.358Z,0.80
2018-04-06T04:51:50.599Z,0.80
2018-04-06T04:54:19.606Z,0.90
2018-04-06T04:56:47.847Z,0.90
2018-04-06T04:59:16.113Z,1.10
2018-04-06T05:01:44.329Z,1.20
2018-04-06T05:04:12.576Z,1.40
2018-04-06T05:06:40.814Z,1.60
2018-04-06T05:09:09.113Z,1.90
2018-04-06T05:11:37.345Z,2.10
2018-04-06T05:14:05.617Z,2.40
2018-04-06T05:16:33.898Z,2.60
2018-04-06T05:19:02.177Z,2.80
2018-04-06T05:21:30.412Z,3.10
2018-04-06T05:23:59.445Z,3.60
2018-04-06T05:26:27.713Z,3.60
2018-04-06T05:28:55.985Z,3.90
2018-04-06T05:31:24.233Z,4.10
2018-04-06T05:33:53.256Z,4.70
2018-04-06T05:36:21.534Z,4.60
2018-04-06T05:38:49.790Z,5.00
2018-04-06T05:41:18.905Z,5.90
2018-04-06T05:43:47.134Z,5.90
2018-04-06T05:46:16.153Z,7.10
2018-04-06T05:48:44.381Z,7.10
2018-04-06T05:51:12.722Z,8.00
2018-04-06T05:53:40.965Z,9.00
2018-04-06T05:56:09.985Z,11.10
2018-04-06T05:58:38.930Z,11.10
2018-04-06T06:01:07.973Z,13.10
2018-04-06T06:03:36.231Z,13.00
2018-04-06T06:06:04.478Z,13.90
2018-04-06T06:08:33.513Z,13.90
2018-04-06T06:11:01.763Z,13.90
2018-04-06T06:13:30.066Z,13.20
2018-04-06T06:15:58.341Z,12.30
2018-04-06T06:18:26.734Z,11.60
2018-04-06T06:20:55.000Z,11.40
2018-04-06T06:23:23.734Z,11.60
2018-04-06T06:25:52.784Z,12.20
2018-04-06T06:28:21.023Z,12.20
2018-04-06T06:30:49.287Z,12.40
2018-04-06T06:33:18.297Z,13.30
2018-04-06T06:35:46.549Z,13.30
2018-04-06T06:38:15.554Z,15.10
2018-04-06T06:40:43.821Z,15.10
2018-04-06T06:43:12.824Z,16.40
2018-04-06T06:45:41.085Z,16.30
2018-04-06T06:48:10.146Z,16.90
2018-04-06T06:50:38.375Z,16.90
2018-04-06T06:53:06.687Z,16.60
2018-04-06T06:55:34.957Z,16.70
2018-04-06T06:58:03.214Z,16.90
2018-04-06T07:00:31.473Z,16.70
2018-04-06T07:02:59.741Z,16.80
2018-04-06T07:05:27.994Z,17.20
2018-04-06T07:07:57.042Z,17.50
2018-04-06T07:10:25.290Z,17.50
2018-04-06T07:12:53.622Z,17.30
2018-04-06T07:15:22.057Z,17.30
2018-04-06T07:17:50.305Z,17.50
2018-04-06T07:20:19.322Z,17.60
2018-04-06T07:22:47.613Z,17.60
2018-04-06T07:25:15.861Z,17.70
2018-04-06T07:27:44.118Z,17.60
2018-04-06T07:30:13.157Z,17.90
2018-04-06T07:32:41.434Z,17.90
2018-04-06T07:35:09.675Z,17.90
2018-04-06T07:37:38.691Z,16.20
2018-04-06T07:40:07.017Z,16.20
2018-04-06T07:42:35.241Z,15.50
2018-04-06T07:45:03.568Z,15.20
2018-04-06T07:47:31.839Z,15.40
2018-04-06T07:50:00.177Z,16.00
2018-04-06T07:52:28.438Z,16.80
2018-04-06T07:54:56.694Z,17.10
2018-04-06T07:57:25.986Z,17.70
2018-04-06T07:59:54.985Z,17.70
2018-04-06T08:02:23.510Z,17.70
2018-04-06T08:04:51.761Z,17.70
2018-04-06T08:07:20.006Z,17.40
2018-04-06T08:09:49.035Z,15.70
2018-04-06T08:12:17.317Z,15.70
2018-04-06T08:14:45.594Z,15.70
2018-04-06T08:17:13.854Z,15.30
2018-04-06T08:19:42.158Z,15.30
2018-04-06T08:22:10.416Z,15.40
2018-04-06T08:24:38.665Z,14.70
2018-04-06T08:27:06.918Z,14.60
2018-04-06T08:29:36.006Z,13.80
2018-04-06T08:32:04.241Z,13.80
2018-04-06T08:34:32.494Z,13.60
2018-04-06T08:37:00.750Z,13.90
2018-04-06T08:39:29.756Z,13.10
2018-04-06T08:41:58.010Z,13.10
2018-04-06T08:44:27.049Z,14.40
2018-04-06T08:46:55.546Z,14.40
2018-04-06T08:49:24.018Z,15.10
2018-04-06T08:51:52.389Z,15.60
2018-04-06T08:54:20.633Z,15.90
2018-04-06T08:56:48.874Z,16.10
2018-04-06T08:59:17.122Z,16.50
2018-04-06T09:01:45.390Z,16.90
2018-04-06T09:04:13.661Z,16.30
2018-04-06T09:06:41.942Z,16.00
2018-04-06T09:09:10.206Z,14.80
2018-04-06T09:11:38.489Z,14.70
2018-04-06T09:14:06.870Z,14.00
2018-04-06T09:16:35.121Z,13.30
2018-04-06T09:19:03.369Z,13.00
2018-04-06T09:21:32.393Z,12.40
2018-04-06T09:24:00.633Z,12.40
2018-04-06T09:26:29.657Z,11.90
2018-04-06T09:28:57.904Z,11.80
2018-04-06T09:31:26.921Z,12.30
2018-04-06T09:33:55.211Z,12.30
2018-04-06T09:36:23.498Z,13.10
2018-04-06T09:38:52.198Z,14.00
2018-04-06T09:41:20.562Z,14.50
2018-04-06T09:43:48.802Z,14.70
2018-04-06T09:46:17.153Z,14.90
2018-04-06T09:48:45.381Z,14.70
2018-04-06T09:51:13.659Z,14.60
2018-04-06T09:53:41.946Z,14.80
2018-04-06T09:56:10.197Z,14.90
2018-04-06T09:58:38.493Z,15.00
2018-04-06T10:01:06.742Z,14.40
2018-04-06T10:03:34.996Z,14.60
2018-04-06T10:06:04.009Z,15.50
2018-04-06T10:08:32.268Z,15.50
2018-04-06T10:11:01.280Z,14.30
2018-04-06T10:13:29.605Z,14.30
2018-04-06T10:15:57.822Z,14.80
2018-04-06T10:18:26.121Z,14.40
2018-04-06T10:20:54.376Z,14.20
2018-04-06T10:23:22.626Z,14.30
2018-04-06T10:25:51.648Z,13.30
2018-04-06T10:28:19.890Z,13.30
2018-04-06T10:30:48.910Z,12.70
2018-04-06T10:33:17.229Z,12.70
2018-04-06T10:35:45.484Z,12.50
2018-04-06T10:38:13.738Z,12.80
2018-04-06T10:40:41.981Z,12.60
2018-04-06T10:43:11.032Z,12.20
2018-04-06T10:45:39.304Z,12.20
2018-04-06T10:48:07.552Z,12.00
2018-04-06T10:50:35.808Z,11.70
2018-04-06T10:53:04.829Z,11.40
2018-04-06T10:55:33.125Z,11.40
2018-04-06T10:58:01.398Z,11.30
2018-04-06T11:00:29.645Z,11.30
2018-04-06T11:02:57.900Z,11.30
2018-04-06T11:05:26.914Z,11.10
2018-04-06T11:07:55.171Z,11.10
2018-04-06T11:10:24.230Z,10.90
2018-04-06T11:12:52.589Z,10.90
2018-04-06T11:15:20.835Z,10.90
2018-04-06T11:17:49.080Z,11.00
2018-04-06T11:20:17.347Z,11.10
2018-04-06T11:22:45.697Z,11.10
2018-04-06T11:25:13.965Z,10.90
2018-04-06T11:27:42.214Z,10.90
2018-04-06T11:30:10.466Z,11.00
2018-04-06T11:32:38.784Z,10.90
2018-04-06T11:35:07.109Z,10.80
2018-04-06T11:37:36.165Z,10.80
2018-04-06T11:40:04.437Z,10.90
2018-04-06T11:42:32.690Z,10.90
2018-04-06T11:45:00.938Z,10.90
2018-04-06T11:47:29.262Z,10.80
2018-04-06T11:49:57.523Z,10.90
2018-04-06T11:52:25.757Z,10.90
2018-04-06T11:54:54.010Z,10.80
2018-04-06T11:57:22.252Z,11.00
2018-04-06T11:59:50.503Z,11.00
2018-04-06T12:02:19.505Z,10.90
2018-04-06T12:04:47.758Z,10.90
2018-04-06T12:07:16.766Z,10.90
2018-04-06T12:09:45.073Z,10.90
2018-04-06T12:12:13.322Z,11.00
2018-04-06T12:14:41.574Z,11.00
2018-04-06T12:17:10.617Z,11.30
2018-04-06T12:19:38.858Z,11.30
2018-04-06T12:22:07.119Z,11.20
2018-04-06T12:24:36.201Z,11.20
2018-04-06T12:27:04.426Z,11.10
2018-04-06T12:29:32.711Z,11.20
2018-04-06T12:32:00.977Z,11.20
2018-04-06T12:34:29.277Z,11.30
2018-04-06T12:36:57.646Z,11.30
2018-04-06T12:39:26.725Z,11.40
2018-04-06T12:41:55.051Z,11.50
2018-04-06T12:44:23.273Z,11.60
2018-04-06T12:46:51.518Z,11.60
2018-04-06T12:49:20.550Z,11.70
2018-04-06T12:51:48.793Z,11.70
2018-04-06T12:54:17.053Z,11.80
2018-04-06T12:56:46.062Z,11.80
2018-04-06T12:59:14.361Z,11.80
2018-04-06T13:01:42.614Z,11.90
2018-04-06T13:04:10.861Z,11.90
2018-04-06T13:06:39.120Z,12.00
2018-04-06T13:11:31.758Z,12.10
2018-04-06T13:14:00.030Z,12.20
2018-04-06T13:16:28.309Z,12.20
2018-04-06T13:18:56.587Z,12.30
2018-04-06T13:21:24.830Z,12.10
2018-04-06T13:23:53.137Z,12.00
2018-04-06T13:26:21.502Z,12.10
2018-04-06T13:28:49.751Z,12.10
2018-04-06T13:31:18.061Z,12.20
2018-04-06T13:33:46.314Z,12.20
2018-04-06T13:36:14.609Z,12.10
2018-04-06T13:38:42.885Z,12.10
2018-04-06T13:41:11.203Z,12.20
2018-04-06T13:43:39.533Z,12.20
2018-04-06T13:46:07.813Z,12.10
2018-04-06T13:48:36.191Z,12.10
2018-04-06T13:51:04.443Z,12.20
2018-04-06T13:53:32.741Z,12.30
2018-04-06T13:56:01.018Z,12.30
2018-04-06T13:58:29.265Z,12.40
2018-04-06T14:00:57.638Z,12.30
2018-04-06T14:03:25.813Z,12.30
2018-04-06T14:05:54.065Z,12.20
2018-04-06T14:08:23.104Z,12.20
2018-04-06T14:10:51.386Z,12.10
2018-04-06T14:13:19.630Z,12.10
2018-04-06T14:15:47.938Z,12.20
2018-04-06T14:18:16.181Z,12.10
2018-04-06T14:20:44.437Z,12.00
2018-04-06T14:23:12.681Z,12.00
2018-04-06T14:25:40.935Z,11.90
2018-04-06T14:28:09.182Z,11.90
2018-04-06T14:30:37.430Z,11.90
2018-04-06T14:33:05.769Z,11.90
2018-04-06T14:35:34.010Z,11.80
2018-04-06T14:38:03.021Z,11.70
2018-04-06T14:40:31.265Z,11.70
2018-04-06T14:43:00.305Z,11.80
2018-04-06T14:45:28.573Z,11.80
2018-04-06T14:47:56.854Z,11.90
2018-04-06T14:50:25.172Z,11.90
2018-04-06T14:52:53.406Z,12.00
2018-04-06T14:55:21.673Z,11.90
2018-04-06T14:57:49.958Z,11.90
2018-04-06T15:00:18.243Z,11.80
2018-04-06T15:02:46.513Z,11.80
2018-04-06T15:05:14.786Z,11.80
2018-04-06T15:07:43.062Z,11.80
2018-04-06T15:10:11.379Z,11.80
2018-04-06T15:12:39.594Z,11.90
2018-04-06T15:15:07.834Z,11.90
2018-04-06T15:17:36.077Z,11.80
2018-04-06T15:20:04.314Z,11.70
2018-04-06T15:22:32.569Z,11.70
2018-04-06T15:25:01.585Z,11.70
2018-04-06T15:27:29.879Z,11.70
2018-04-06T15:29:58.121Z,11.70
2018-04-06T15:32:26.472Z,11.70
2018-04-06T15:34:54.696Z,11.70
2018-04-06T15:37:22.981Z,11.80
2018-04-06T15:39:51.262Z,11.80
2018-04-06T15:42:19.505Z,11.70
2018-04-06T15:44:47.749Z,11.60
2018-04-06T15:47:15.993Z,11.50
2018-04-06T15:49:44.262Z,11.60
2018-04-06T15:52:12.505Z,11.50
2018-04-06T15:54:40.797Z,11.50
2018-04-06T15:57:09.082Z,11.50
2018-04-06T15:59:37.353Z,11.50
2018-04-06T16:02:05.652Z,11.50
2018-04-06T16:04:33.905Z,11.50
2018-04-06T16:07:02.172Z,11.40
2018-04-06T16:09:31.178Z,11.40
2018-04-06T16:11:59.441Z,11.40
2018-04-06T16:14:27.677Z,11.40
2018-04-06T16:16:56.701Z,11.40
2018-04-06T16:19:25.457Z,11.30
2018-04-06T16:21:53.685Z,11.40
2018-04-06T16:24:22.222Z,11.40
2018-04-06T16:26:51.217Z,11.30
2018-04-06T16:29:20.231Z,11.20
2018-04-06T16:31:48.518Z,11.20
2018-04-06T16:34:16.797Z,11.20
2018-04-06T16:36:45.037Z,11.20
2018-04-06T16:39:14.065Z,11.20
2018-04-06T16:41:42.373Z,11.20
2018-04-06T16:44:10.718Z,11.20
2018-04-06T16:46:38.960Z,11.10
2018-04-06T16:49:07.987Z,10.90
2018-04-06T16:51:36.231Z,10.90
2018-04-06T16:54:05.258Z,10.70
2018-04-06T16:56:33.530Z,10.70
2018-04-06T16:59:01.909Z,10.60
2018-04-06T17:01:30.144Z,10.60
2018-04-06T17:03:59.149Z,10.40
2018-04-06T17:06:27.403Z,10.40
2018-04-06T17:08:55.986Z,10.40
2018-04-06T17:11:24.226Z,10.40
2018-04-06T17:13:52.473Z,10.30
2018-04-06T17:16:20.758Z,10.20
2018-04-06T17:18:49.000Z,10.10
2018-04-06T17:21:17.257Z,10.10
2018-04-06T17:23:46.297Z,10.00
2018-04-06T17:26:14.582Z,9.90
2018-04-06T17:28:42.877Z,9.80
2018-04-06T17:31:11.133Z,9.80
2018-04-06T17:33:39.402Z,9.70
2018-04-06T17:36:07.909Z,9.60
2018-04-06T17:38:37.694Z,9.50
2018-04-06T17:41:05.929Z,9.50
2018-04-06T17:43:34.976Z,9.40
2018-04-06T17:46:03.229Z,9.40
2018-04-06T17:48:31.641Z,9.40
2018-04-06T17:50:59.858Z,9.40
2018-04-06T17:53:28.879Z,9.40
2018-04-06T17:55:57.117Z,9.40
2018-04-06T17:58:26.118Z,9.50
2018-04-06T18:00:55.180Z,9.50
2018-04-06T18:03:24.233Z,9.40
2018-04-06T18:05:52.555Z,9.40
2018-04-06T18:08:20.762Z,9.40
2018-04-06T18:10:48.989Z,9.40
2018-04-06T18:13:17.241Z,9.30
2018-04-06T18:15:45.465Z,9.30
2018-04-06T18:18:14.486Z,9.10
2018-04-06T18:20:43.569Z,9.10
2018-04-06T18:23:11.870Z,9.00
2018-04-06T18:25:40.157Z,8.80
2018-04-06T18:28:09.128Z,8.50
2018-04-06T18:30:37.362Z,8.50
2018-04-06T18:33:05.685Z,8.30
2018-04-06T18:35:33.966Z,8.20
2018-04-06T18:38:02.246Z,8.20
2018-04-06T18:40:30.517Z,8.20
2018-04-06T18:42:58.789Z,8.10
2018-04-06T18:45:27.034Z,8.00
2018-04-06T18:47:56.070Z,8.00
2018-04-06T18:50:24.376Z,8.00
2018-04-06T18:52:52.609Z,8.10
2018-04-06T18:55:20.993Z,8.10
2018-04-06T18:57:49.206Z,8.10
2018-04-06T19:00:18.299Z,8.20
2018-04-06T19:02:46.524Z,8.10
2018-04-06T19:05:14.809Z,8.10
2018-04-06T19:07:43.054Z,8.00
2018-04-06T19:10:11.326Z,8.00
2018-04-06T19:12:39.630Z,8.00
2018-04-06T19:15:07.910Z,8.00
2018-04-06T19:17:36.146Z,8.00
2018-04-06T19:20:05.170Z,7.90
2018-04-06T19:22:33.423Z,7.90
2018-04-06T19:25:02.405Z,7.90
2018-04-06T19:27:31.425Z,7.90
2018-04-06T19:29:59.657Z,7.80
2018-04-06T19:32:28.736Z,7.90
2018-04-06T19:34:56.943Z,7.90
2018-04-06T19:37:25.978Z,7.80
2018-04-06T19:39:54.233Z,7.80
2018-04-06T19:42:22.554Z,7.70
2018-04-06T19:44:50.787Z,7.60
2018-04-06T19:47:19.089Z,7.60
2018-04-06T19:49:47.330Z,7.50
2018-04-06T19:52:15.623Z,7.60
2018-04-06T19:54:44.000Z,7.60
2018-04-06T19:57:12.230Z,7.60
2018-04-06T19:59:41.254Z,7.60
2018-04-06T20:02:09.556Z,7.60
2018-04-06T20:04:37.786Z,7.50
2018-04-06T20:07:06.806Z,7.60
2018-04-06T20:09:35.087Z,7.60
2018-04-06T20:12:03.329Z,7.70
2018-04-06T20:14:32.326Z,7.70
2018-04-06T20:17:00.638Z,7.70
2018-04-06T20:19:28.897Z,7.60
2018-04-06T20:21:57.141Z,7.70
2018-04-06T20:24:26.143Z,7.60
2018-04-06T20:26:55.154Z,7.60
2018-04-06T20:29:23.390Z,7.50
2018-04-06T20:31:51.729Z,7.50
2018-04-06T20:34:19.989Z,7.40
2018-04-06T20:36:48.277Z,7.30
2018-04-06T20:39:16.539Z,7.20
2018-04-06T20:41:44.869Z,7.10
2018-04-06T20:44:13.139Z,7.00
2018-04-06T20:46:41.737Z,6.90
2018-04-06T20:49:10.045Z,6.90
2018-04-06T20:51:38.357Z,6.80
2018-04-06T20:54:06.714Z,6.80
2018-04-06T20:56:34.986Z,6.80
2018-04-06T20:59:03.358Z,6.80
2018-04-06T21:01:31.765Z,6.80
2018-04-06T21:04:00.204Z,6.90
2018-04-06T21:06:28.434Z,6.80
2018-04-06T21:08:56.767Z,6.80
2018-04-06T21:11:25.083Z,6.70
2018-04-06T21:13:53.289Z,6.70
2018-04-06T21:16:21.536Z,6.70
2018-04-06T21:18:49.869Z,6.60
2018-04-06T21:21:18.146Z,6.70
2018-04-06T21:23:46.382Z,6.70
2018-04-06T21:26:15.407Z,6.70
2018-04-06T21:28:43.646Z,6.70
2018-04-06T21:31:12.658Z,6.70
2018-04-06T21:33:40.896Z,6.70
2018-04-06T21:36:09.141Z,6.70
2018-04-06T21:38:37.374Z,6.70
2018-04-06T21:41:05.679Z,6.70
2018-04-06T21:43:33.917Z,6.70
2018-04-06T21:46:02.945Z,6.60
2018-04-06T21:48:31.194Z,6.60
2018-04-06T21:50:59.507Z,6.60
2018-04-06T21:53:27.749Z,6.40
2018-04-06T21:55:55.983Z,6.40
2018-04-06T21:58:24.241Z,6.30
2018-04-06T22:00:52.529Z,6.20
2018-04-06T22:03:20.742Z,6.10
2018-04-06T22:05:49.742Z,6.00
2018-04-06T22:08:17.981Z,5.90
2018-04-06T22:10:46.226Z,5.90
2018-04-06T22:13:14.465Z,5.90
2018-04-06T22:15:42.765Z,5.80
2018-04-06T22:18:10.993Z,5.80
2018-04-06T22:20:40.006Z,5.70
2018-04-06T22:23:08.302Z,5.70
2018-04-06T22:25:36.546Z,5.70
2018-04-06T22:28:05.545Z,5.70
2018-04-06T22:30:34.553Z,5.60
2018-04-06T22:33:02.837Z,5.60
2018-04-06T22:35:31.080Z,5.50
2018-04-06T22:38:00.086Z,5.30
2018-04-06T22:40:28.327Z,5.30
2018-04-06T22:42:56.562Z,5.20
2018-04-06T22:45:24.833Z,5.30
2018-04-06T22:47:53.071Z,5.40
2018-04-06T22:50:22.072Z,5.40
2018-04-06T22:52:50.379Z,5.40
2018-04-06T22:55:18.613Z,5.40
2018-04-06T22:57:47.642Z,5.40
2018-04-06T23:00:15.932Z,5.40
2018-04-06T23:02:44.701Z,5.60
2018-04-06T23:05:12.932Z,5.60
2018-04-06T23:07:41.946Z,6.10
2018-04-06T23:10:10.252Z,6.10
2018-04-06T23:12:38.490Z,6.20
2018-04-06T23:15:07.509Z,6.40
2018-04-06T23:17:35.795Z,6.40
2018-04-06T23:20:04.061Z,6.40
2018-04-06T23:22:32.302Z,6.50
2018-04-06T23:25:01.329Z,6.60
2018-04-06T23:27:29.569Z,6.60
2018-04-06T23:29:58.601Z,6.50
2018-04-06T23:32:26.876Z,6.50
2018-04-06T23:34:55.157Z,6.50
2018-04-06T23:37:23.430Z,6.50
2018-04-06T23:39:51.705Z,6.50
2018-04-06T23:42:19.937Z,6.50
2018-04-06T23:44:49.078Z,6.40
2018-04-06T23:47:17.349Z,6.40
2018-04-06T23:49:45.897Z,6.50
2018-04-06T23:52:14.895Z,6.50
2018-04-06T23:54:43.917Z,6.50
2018-04-06T23:57:12.194Z,6.40
2018-04-06T23:59:40.421Z,6.40
